sensor_id;sensor_type;location;lat;lon;timestamp;pressure;altitude;pressure_sealevel;temperature;humidity
46347;BME280;32057;47.830;19.046;2023-02-15T00:01:41;101977.34;;;-2.35;100.00
46347;BME280;32057;47.830;19.046;2023-02-15T00:04:08;101969.25;;;-2.31;100.00
46347;BME280;32057;47.830;19.046;2023-02-15T00:06:34;101976.44;;;-2.27;100.00
46347;BME280;32057;47.830;19.046;2023-02-15T00:09:00;101980.34;;;-2.39;100.00
46347;BME280;32057;47.830;19.046;2023-02-15T00:11:26;101974.19;;;-2.41;100.00
46347;BME280;32057;47.830;19.046;2023-02-15T00:14:30;101969.25;;;-2.39;100.00
46347;BME280;32057;47.830;19.046;2023-02-15T00:16:55;101974.78;;;-2.35;100.00
46347;BME280;32057;47.830;19.046;2023-02-15T00:19:24;101972.97;;;-2.36;100.00
46347;BME280;32057;47.830;19.046;2023-02-15T00:21:50;101977.19;;;-2.45;100.00
46347;BME280;32057;47.830;19.046;2023-02-15T00:24:17;101976.72;;;-2.41;100.00
46347;BME280;32057;47.830;19.046;2023-02-15T00:26:43;101980.34;;;-2.39;100.00
46347;BME280;32057;47.830;19.046;2023-02-15T00:29:10;101975.53;;;-2.45;100.00
46347;BME280;32057;47.830;19.046;2023-02-15T00:31:36;101976.41;;;-2.44;100.00
46347;BME280;32057;47.830;19.046;2023-02-15T00:34:03;101978.38;;;-2.50;100.00
46347;BME280;32057;47.830;19.046;2023-02-15T00:36:29;101979.41;;;-2.48;100.00
46347;BME280;32057;47.830;19.046;2023-02-15T00:38:55;101982.72;;;-2.49;100.00
46347;BME280;32057;47.830;19.046;2023-02-15T00:41:20;101985.56;;;-2.46;100.00
46347;BME280;32057;47.830;19.046;2023-02-15T00:43:45;101974.31;;;-2.48;100.00
46347;BME280;32057;47.830;19.046;2023-02-15T00:46:11;101974.03;;;-2.43;100.00
46347;BME280;32057;47.830;19.046;2023-02-15T00:48:36;101974.91;;;-2.42;100.00
46347;BME280;32057;47.830;19.046;2023-02-15T00:51:02;101977.34;;;-2.44;100.00
46347;BME280;32057;47.830;19.046;2023-02-15T00:53:28;101971.59;;;-2.50;100.00
46347;BME280;32057;47.830;19.046;2023-02-15T00:55:54;101975.22;;;-2.56;100.00
46347;BME280;32057;47.830;19.046;2023-02-15T00:58:20;101971.78;;;-2.57;100.00
46347;BME280;32057;47.830;19.046;2023-02-15T01:00:46;101966.84;;;-2.55;100.00
46347;BME280;32057;47.830;19.046;2023-02-15T01:03:14;101970.13;;;-2.56;100.00
46347;BME280;32057;47.830;19.046;2023-02-15T01:05:40;101972.22;;;-2.52;100.00
46347;BME280;32057;47.830;19.046;2023-02-15T01:08:05;101972.06;;;-2.54;100.00
46347;BME280;32057;47.830;19.046;2023-02-15T01:10:31;101971.00;;;-2.56;100.00
46347;BME280;32057;47.830;19.046;2023-02-15T01:12:58;101974.59;;;-2.71;100.00
46347;BME280;32057;47.830;19.046;2023-02-15T01:15:24;101980.19;;;-3.09;100.00
46347;BME280;32057;47.830;19.046;2023-02-15T01:17:50;101974.41;;;-3.24;100.00
46347;BME280;32057;47.830;19.046;2023-02-15T01:20:26;101967.69;;;-3.23;100.00
46347;BME280;32057;47.830;19.046;2023-02-15T01:22:53;101967.53;;;-3.33;100.00
46347;BME280;32057;47.830;19.046;2023-02-15T01:25:20;101961.84;;;-3.22;100.00
46347;BME280;32057;47.830;19.046;2023-02-15T01:27:46;101957.53;;;-3.14;100.00
46347;BME280;32057;47.830;19.046;2023-02-15T01:30:13;101952.78;;;-3.11;100.00
46347;BME280;32057;47.830;19.046;2023-02-15T01:32:39;101955.28;;;-3.20;100.00
46347;BME280;32057;47.830;19.046;2023-02-15T01:35:05;101953.34;;;-3.14;100.00
46347;BME280;32057;47.830;19.046;2023-02-15T01:37:31;101954.09;;;-3.15;100.00
46347;BME280;32057;47.830;19.046;2023-02-15T01:39:57;101948.97;;;-3.24;100.00
46347;BME280;32057;47.830;19.046;2023-02-15T01:42:24;101956.75;;;-3.22;100.00
46347;BME280;32057;47.830;19.046;2023-02-15T01:44:53;101952.72;;;-3.20;100.00
46347;BME280;32057;47.830;19.046;2023-02-15T01:50:15;101954.28;;;-3.13;100.00
46347;BME280;32057;47.830;19.046;2023-02-15T01:53:00;101948.88;;;-3.08;100.00
46347;BME280;32057;47.830;19.046;2023-02-15T01:55:32;101945.88;;;-3.04;100.00
46347;BME280;32057;47.830;19.046;2023-02-15T01:58:00;101957.97;;;-3.27;100.00
46347;BME280;32057;47.830;19.046;2023-02-15T02:00:25;101954.06;;;-3.24;100.00
46347;BME280;32057;47.830;19.046;2023-02-15T02:02:53;101951.47;;;-3.32;100.00
46347;BME280;32057;47.830;19.046;2023-02-15T02:05:20;101949.19;;;-3.47;100.00
46347;BME280;32057;47.830;19.046;2023-02-15T02:07:47;101953.84;;;-3.43;100.00
46347;BME280;32057;47.830;19.046;2023-02-15T02:10:20;101954.13;;;-3.40;100.00
46347;BME280;32057;47.830;19.046;2023-02-15T02:12:47;101953.06;;;-3.42;100.00
46347;BME280;32057;47.830;19.046;2023-02-15T02:15:15;101955.22;;;-3.37;100.00
46347;BME280;32057;47.830;19.046;2023-02-15T02:20:50;101954.56;;;-3.44;100.00
46347;BME280;32057;47.830;19.046;2023-02-15T02:28:58;101952.41;;;-3.65;100.00
46347;BME280;32057;47.830;19.046;2023-02-15T02:37:00;101951.19;;;-3.60;100.00
46347;BME280;32057;47.830;19.046;2023-02-15T02:42:35;101955.84;;;-3.31;100.00
46347;BME280;32057;47.830;19.046;2023-02-15T02:45:19;101958.25;;;-3.24;100.00
46347;BME280;32057;47.830;19.046;2023-02-15T02:47:47;101955.22;;;-3.37;100.00
46347;BME280;32057;47.830;19.046;2023-02-15T02:50:16;101954.50;;;-3.61;100.00
46347;BME280;32057;47.830;19.046;2023-02-15T02:52:44;101964.06;;;-3.67;100.00
46347;BME280;32057;47.830;19.046;2023-02-15T02:55:15;101958.03;;;-3.68;100.00
46347;BME280;32057;47.830;19.046;2023-02-15T02:58:05;101957.34;;;-3.58;100.00
46347;BME280;32057;47.830;19.046;2023-02-15T03:00:44;101963.41;;;-3.49;100.00
46347;BME280;32057;47.830;19.046;2023-02-15T03:06:21;101962.69;;;-3.39;100.00
46347;BME280;32057;47.830;19.046;2023-02-15T03:08:56;101953.88;;;-3.34;100.00
46347;BME280;32057;47.830;19.046;2023-02-15T03:11:23;101960.00;;;-3.41;100.00
46347;BME280;32057;47.830;19.046;2023-02-15T03:13:49;101960.22;;;-3.55;100.00
46347;BME280;32057;47.830;19.046;2023-02-15T03:16:17;101964.63;;;-3.70;100.00
46347;BME280;32057;47.830;19.046;2023-02-15T03:19:00;101958.38;;;-3.65;100.00
46347;BME280;32057;47.830;19.046;2023-02-15T03:21:56;101959.09;;;-3.66;100.00
46347;BME280;32057;47.830;19.046;2023-02-15T03:24:59;101955.44;;;-3.52;100.00
46347;BME280;32057;47.830;19.046;2023-02-15T03:27:37;101954.56;;;-3.44;100.00
46347;BME280;32057;47.830;19.046;2023-02-15T03:30:05;101955.31;;;-3.45;100.00
46347;BME280;32057;47.830;19.046;2023-02-15T03:32:33;101954.91;;;-3.41;100.00
46347;BME280;32057;47.830;19.046;2023-02-15T03:34:59;101949.91;;;-3.48;100.00
46347;BME280;32057;47.830;19.046;2023-02-15T03:37:48;101960.09;;;-3.48;100.00
46347;BME280;32057;47.830;19.046;2023-02-15T03:40:23;101957.53;;;-3.48;100.00
46347;BME280;32057;47.830;19.046;2023-02-15T03:45:49;101960.69;;;-3.50;100.00
46347;BME280;32057;47.830;19.046;2023-02-15T03:48:27;101964.13;;;-3.50;100.00
46347;BME280;32057;47.830;19.046;2023-02-15T03:50:58;101960.41;;;-3.45;100.00
46347;BME280;32057;47.830;19.046;2023-02-15T03:53:44;101962.97;;;-3.45;100.00
46347;BME280;32057;47.830;19.046;2023-02-15T03:56:11;101962.78;;;-3.46;100.00
46347;BME280;32057;47.830;19.046;2023-02-15T03:58:36;101971.88;;;-3.57;100.00
46347;BME280;32057;47.830;19.046;2023-02-15T04:01:39;101964.41;;;-3.55;100.00
46347;BME280;32057;47.830;19.046;2023-02-15T04:04:38;101961.72;;;-3.57;100.00
46347;BME280;32057;47.830;19.046;2023-02-15T04:07:07;101963.94;;;-3.85;100.00
46347;BME280;32057;47.830;19.046;2023-02-15T04:09:33;101965.50;;;-3.94;100.00
46347;BME280;32057;47.830;19.046;2023-02-15T04:12:17;101963.59;;;-4.12;100.00
46347;BME280;32057;47.830;19.046;2023-02-15T04:14:42;101972.38;;;-4.33;100.00
46347;BME280;32057;47.830;19.046;2023-02-15T04:17:27;101974.13;;;-4.41;100.00
46347;BME280;32057;47.830;19.046;2023-02-15T04:19:52;101968.47;;;-4.23;100.00
46347;BME280;32057;47.830;19.046;2023-02-15T04:22:36;101967.38;;;-4.09;100.00
46347;BME280;32057;47.830;19.046;2023-02-15T04:25:20;101963.09;;;-4.01;100.00
46347;BME280;32057;47.830;19.046;2023-02-15T04:27:54;101967.84;;;-4.04;100.00
46347;BME280;32057;47.830;19.046;2023-02-15T04:30:22;101967.88;;;-3.95;100.00
46347;BME280;32057;47.830;19.046;2023-02-15T04:32:48;101964.53;;;-3.87;100.00
46347;BME280;32057;47.830;19.046;2023-02-15T04:35:14;101967.13;;;-3.78;100.00
46347;BME280;32057;47.830;19.046;2023-02-15T04:37:40;101964.16;;;-3.74;100.00
46347;BME280;32057;47.830;19.046;2023-02-15T04:40:06;101965.22;;;-3.72;100.00
46347;BME280;32057;47.830;19.046;2023-02-15T04:42:33;101965.63;;;-3.76;100.00
46347;BME280;32057;47.830;19.046;2023-02-15T04:44:58;101961.59;;;-3.74;100.00
46347;BME280;32057;47.830;19.046;2023-02-15T04:47:24;101963.09;;;-3.76;100.00
46347;BME280;32057;47.830;19.046;2023-02-15T04:49:50;101959.75;;;-3.84;100.00
46347;BME280;32057;47.830;19.046;2023-02-15T04:52:15;101965.44;;;-3.87;100.00
46347;BME280;32057;47.830;19.046;2023-02-15T04:54:43;101966.91;;;-3.89;100.00
46347;BME280;32057;47.830;19.046;2023-02-15T04:57:09;101971.19;;;-3.96;100.00
46347;BME280;32057;47.830;19.046;2023-02-15T04:59:34;101970.44;;;-3.95;100.00
46347;BME280;32057;47.830;19.046;2023-02-15T05:02:00;101963.91;;;-3.93;100.00
46347;BME280;32057;47.830;19.046;2023-02-15T05:04:25;101972.88;;;-3.88;100.00
46347;BME280;32057;47.830;19.046;2023-02-15T05:06:51;101972.47;;;-3.84;100.00
46347;BME280;32057;47.830;19.046;2023-02-15T05:09:16;101981.31;;;-3.81;100.00
46347;BME280;32057;47.830;19.046;2023-02-15T05:11:42;101975.47;;;-3.80;100.00
46347;BME280;32057;47.830;19.046;2023-02-15T05:14:07;101982.16;;;-3.89;100.00
46347;BME280;32057;47.830;19.046;2023-02-15T05:16:33;101983.31;;;-3.94;100.00
46347;BME280;32057;47.830;19.046;2023-02-15T05:18:59;101982.25;;;-3.96;100.00
46347;BME280;32057;47.830;19.046;2023-02-15T05:21:24;101983.44;;;-4.01;100.00
46347;BME280;32057;47.830;19.046;2023-02-15T05:23:50;101988.81;;;-3.98;100.00
46347;BME280;32057;47.830;19.046;2023-02-15T05:26:21;101993.91;;;-3.98;100.00
46347;BME280;32057;47.830;19.046;2023-02-15T05:29:06;101981.94;;;-3.99;100.00
46347;BME280;32057;47.830;19.046;2023-02-15T05:31:32;101998.25;;;-3.97;100.00
46347;BME280;32057;47.830;19.046;2023-02-15T05:33:58;101995.50;;;-4.07;100.00
46347;BME280;32057;47.830;19.046;2023-02-15T05:36:23;101990.16;;;-4.17;100.00
46347;BME280;32057;47.830;19.046;2023-02-15T05:38:49;101986.56;;;-4.20;100.00
46347;BME280;32057;47.830;19.046;2023-02-15T05:41:14;101983.47;;;-4.17;100.00
46347;BME280;32057;47.830;19.046;2023-02-15T05:43:40;101993.38;;;-4.11;100.00
46347;BME280;32057;47.830;19.046;2023-02-15T05:46:06;101990.72;;;-4.04;100.00
46347;BME280;32057;47.830;19.046;2023-02-15T05:48:32;101997.63;;;-4.03;100.00
46347;BME280;32057;47.830;19.046;2023-02-15T05:51:00;101997.94;;;-4.00;100.00
46347;BME280;32057;47.830;19.046;2023-02-15T05:53:27;102006.63;;;-3.98;100.00
46347;BME280;32057;47.830;19.046;2023-02-15T05:55:53;102006.31;;;-4.01;100.00
46347;BME280;32057;47.830;19.046;2023-02-15T05:58:19;102006.31;;;-4.01;100.00
46347;BME280;32057;47.830;19.046;2023-02-15T06:00:45;102007.03;;;-4.02;100.00
46347;BME280;32057;47.830;19.046;2023-02-15T06:03:10;102002.72;;;-4.03;100.00
46347;BME280;32057;47.830;19.046;2023-02-15T06:05:36;102015.84;;;-4.07;100.00
46347;BME280;32057;47.830;19.046;2023-02-15T06:08:01;102008.34;;;-4.06;100.00
46347;BME280;32057;47.830;19.046;2023-02-15T06:10:26;102011.69;;;-3.98;100.00
46347;BME280;32057;47.830;19.046;2023-02-15T06:12:52;102007.25;;;-3.92;100.00
46347;BME280;32057;47.830;19.046;2023-02-15T06:15:17;102003.56;;;-3.87;100.00
46347;BME280;32057;47.830;19.046;2023-02-15T06:17:43;102006.75;;;-3.81;100.00
46347;BME280;32057;47.830;19.046;2023-02-15T06:20:09;102010.19;;;-3.80;100.00
46347;BME280;32057;47.830;19.046;2023-02-15T06:22:35;102014.00;;;-3.92;100.00
46347;BME280;32057;47.830;19.046;2023-02-15T06:25:01;102022.25;;;-3.86;100.00
46347;BME280;32057;47.830;19.046;2023-02-15T06:27:26;102014.84;;;-3.76;100.00
46347;BME280;32057;47.830;19.046;2023-02-15T06:29:52;102015.19;;;-3.73;100.00
46347;BME280;32057;47.830;19.046;2023-02-15T06:32:17;102019.59;;;-3.63;100.00
46347;BME280;32057;47.830;19.046;2023-02-15T06:34:42;102021.28;;;-3.55;100.00
46347;BME280;32057;47.830;19.046;2023-02-15T06:37:08;102020.69;;;-3.52;100.00
46347;BME280;32057;47.830;19.046;2023-02-15T06:39:34;102013.84;;;-3.45;100.00
46347;BME280;32057;47.830;19.046;2023-02-15T06:41:59;102018.09;;;-3.36;100.00
46347;BME280;32057;47.830;19.046;2023-02-15T06:44:24;102010.66;;;-3.26;100.00
46347;BME280;32057;47.830;19.046;2023-02-15T06:46:50;102013.38;;;-3.16;100.00
46347;BME280;32057;47.830;19.046;2023-02-15T06:49:15;102015.41;;;-3.05;100.00
46347;BME280;32057;47.830;19.046;2023-02-15T06:51:41;102015.28;;;-2.97;100.00
46347;BME280;32057;47.830;19.046;2023-02-15T06:54:06;102017.69;;;-2.90;100.00
46347;BME280;32057;47.830;19.046;2023-02-15T06:56:32;102017.88;;;-2.80;100.00
46347;BME280;32057;47.830;19.046;2023-02-15T06:58:57;102024.63;;;-2.72;100.00
46347;BME280;32057;47.830;19.046;2023-02-15T07:01:23;102025.56;;;-2.63;100.00
46347;BME280;32057;47.830;19.046;2023-02-15T07:03:48;102028.59;;;-2.49;100.00
46347;BME280;32057;47.830;19.046;2023-02-15T07:06:14;102021.41;;;-2.36;100.00
46347;BME280;32057;47.830;19.046;2023-02-15T07:08:39;102031.03;;;-2.25;100.00
46347;BME280;32057;47.830;19.046;2023-02-15T07:11:06;102027.13;;;-2.12;100.00
46347;BME280;32057;47.830;19.046;2023-02-15T07:13:50;102026.25;;;-1.95;100.00
46347;BME280;32057;47.830;19.046;2023-02-15T07:16:18;102021.44;;;-1.84;100.00
46347;BME280;32057;47.830;19.046;2023-02-15T07:18:43;102020.66;;;-1.74;100.00
46347;BME280;32057;47.830;19.046;2023-02-15T07:21:08;102017.03;;;-1.58;100.00
46347;BME280;32057;47.830;19.046;2023-02-15T07:23:38;102012.06;;;-1.48;100.00
46347;BME280;32057;47.830;19.046;2023-02-15T07:26:05;102016.22;;;-1.31;100.00
46347;BME280;32057;47.830;19.046;2023-02-15T07:28:33;102016.75;;;-1.16;100.00
46347;BME280;32057;47.830;19.046;2023-02-15T07:31:01;102007.09;;;-1.02;100.00
46347;BME280;32057;47.830;19.046;2023-02-15T07:33:27;102010.94;;;-0.88;100.00
46347;BME280;32057;47.830;19.046;2023-02-15T07:35:54;102012.69;;;-0.78;100.00
46347;BME280;32057;47.830;19.046;2023-02-15T07:38:22;102005.47;;;-0.73;100.00
46347;BME280;32057;47.830;19.046;2023-02-15T07:40:48;102016.41;;;-0.66;100.00
46347;BME280;32057;47.830;19.046;2023-02-15T07:43:13;102002.91;;;-0.54;100.00
46347;BME280;32057;47.830;19.046;2023-02-15T07:45:39;102005.72;;;-0.43;100.00
46347;BME280;32057;47.830;19.046;2023-02-15T07:48:05;102006.69;;;-0.32;100.00
46347;BME280;32057;47.830;19.046;2023-02-15T07:50:31;102005.72;;;-0.24;100.00
46347;BME280;32057;47.830;19.046;2023-02-15T07:52:57;101996.78;;;-0.18;100.00
46347;BME280;32057;47.830;19.046;2023-02-15T07:55:22;101997.41;;;-0.02;100.00
46347;BME280;32057;47.830;19.046;2023-02-15T07:57:49;101992.47;;;0.10;100.00
46347;BME280;32057;47.830;19.046;2023-02-15T08:00:16;101997.00;;;0.12;100.00
46347;BME280;32057;47.830;19.046;2023-02-15T08:02:49;101992.69;;;0.22;100.00
46347;BME280;32057;47.830;19.046;2023-02-15T08:05:34;101985.59;;;0.09;100.00
46347;BME280;32057;47.830;19.046;2023-02-15T08:08:00;101979.13;;;0.23;100.00
46347;BME280;32057;47.830;19.046;2023-02-15T08:10:25;101979.31;;;0.34;100.00
46347;BME280;32057;47.830;19.046;2023-02-15T08:13:11;101970.72;;;0.34;100.00
46347;BME280;32057;47.830;19.046;2023-02-15T08:15:36;101971.66;;;0.45;100.00
46347;BME280;32057;47.830;19.046;2023-02-15T08:18:02;101973.75;;;0.59;100.00
46347;BME280;32057;47.830;19.046;2023-02-15T08:20:27;101964.72;;;0.73;100.00
46347;BME280;32057;47.830;19.046;2023-02-15T08:22:52;101969.09;;;0.84;100.00
46347;BME280;32057;47.830;19.046;2023-02-15T08:25:18;101971.69;;;1.05;100.00
46347;BME280;32057;47.830;19.046;2023-02-15T08:27:43;101962.72;;;1.10;100.00
46347;BME280;32057;47.830;19.046;2023-02-15T08:30:09;101959.00;;;1.16;100.00
46347;BME280;32057;47.830;19.046;2023-02-15T08:32:35;101966.84;;;1.38;100.00
46347;BME280;32057;47.830;19.046;2023-02-15T08:35:00;101955.53;;;1.57;100.00
46347;BME280;32057;47.830;19.046;2023-02-15T08:37:25;101954.50;;;1.55;100.00
46347;BME280;32057;47.830;19.046;2023-02-15T08:39:51;101950.78;;;1.72;100.00
46347;BME280;32057;47.830;19.046;2023-02-15T08:42:17;101953.16;;;1.91;100.00
46347;BME280;32057;47.830;19.046;2023-02-15T08:44:42;101945.78;;;2.06;100.00
46347;BME280;32057;47.830;19.046;2023-02-15T08:47:07;101947.44;;;2.15;100.00
46347;BME280;32057;47.830;19.046;2023-02-15T08:49:33;101946.09;;;2.31;100.00
46347;BME280;32057;47.830;19.046;2023-02-15T08:51:58;101955.56;;;2.42;100.00
46347;BME280;32057;47.830;19.046;2023-02-15T08:54:24;101946.13;;;2.53;100.00
46347;BME280;32057;47.830;19.046;2023-02-15T08:56:50;101945.16;;;2.63;100.00
46347;BME280;32057;47.830;19.046;2023-02-15T08:59:18;101939.28;;;2.75;100.00
46347;BME280;32057;47.830;19.046;2023-02-15T09:01:45;101941.16;;;2.88;100.00
46347;BME280;32057;47.830;19.046;2023-02-15T09:04:11;101942.34;;;3.04;100.00
46347;BME280;32057;47.830;19.046;2023-02-15T09:06:39;101939.91;;;3.17;100.00
46347;BME280;32057;47.830;19.046;2023-02-15T09:09:06;101933.66;;;3.25;100.00
46347;BME280;32057;47.830;19.046;2023-02-15T09:11:51;101937.84;;;3.35;100.00
46347;BME280;32057;47.830;19.046;2023-02-15T09:14:19;101935.97;;;3.44;100.00
46347;BME280;32057;47.830;19.046;2023-02-15T09:16:49;101931.03;;;3.47;100.00
46347;BME280;32057;47.830;19.046;2023-02-15T09:19:17;101929.16;;;3.68;100.00
46347;BME280;32057;47.830;19.046;2023-02-15T09:21:45;101926.72;;;3.82;100.00
46347;BME280;32057;47.830;19.046;2023-02-15T09:24:13;101928.59;;;3.84;100.00
46347;BME280;32057;47.830;19.046;2023-02-15T09:26:41;101933.97;;;3.99;100.00
46347;BME280;32057;47.830;19.046;2023-02-15T09:29:08;101930.50;;;4.10;100.00
46347;BME280;32057;47.830;19.046;2023-02-15T09:31:42;101927.22;;;4.25;100.00
46347;BME280;32057;47.830;19.046;2023-02-15T09:34:10;101920.38;;;4.37;100.00
46347;BME280;32057;47.830;19.046;2023-02-15T09:36:37;101917.09;;;4.51;100.00
46347;BME280;32057;47.830;19.046;2023-02-15T09:39:14;101919.03;;;4.67;100.00
46347;BME280;32057;47.830;19.046;2023-02-15T09:53:33;101907.69;;;5.02;98.71
46347;BME280;32057;47.830;19.046;2023-02-15T10:07:28;101897.47;;;5.42;94.20
46347;BME280;32057;47.830;19.046;2023-02-15T10:12:43;101894.97;;;5.57;96.30
46347;BME280;32057;47.830;19.046;2023-02-15T10:15:33;101897.91;;;5.62;96.04
46347;BME280;32057;47.830;19.046;2023-02-15T10:18:27;101893.13;;;5.68;95.42
46347;BME280;32057;47.830;19.046;2023-02-15T10:26:36;101889.72;;;5.69;93.69
46347;BME280;32057;47.830;19.046;2023-02-15T10:29:07;101899.19;;;5.82;93.41
46347;BME280;32057;47.830;19.046;2023-02-15T10:31:44;101887.66;;;5.90;92.34
46347;BME280;32057;47.830;19.046;2023-02-15T10:34:18;101884.00;;;6.00;92.46
46347;BME280;32057;47.830;19.046;2023-02-15T10:43:16;101874.13;;;6.21;91.02
46347;BME280;32057;47.830;19.046;2023-02-15T10:51:00;101871.41;;;6.32;88.92
46347;BME280;32057;47.830;19.046;2023-02-15T11:07:21;101842.09;;;6.60;86.16
46347;BME280;32057;47.830;19.046;2023-02-15T11:12:28;101844.16;;;6.66;86.20
46347;BME280;32057;47.830;19.046;2023-02-15T11:17:45;101828.72;;;6.67;86.82
46347;BME280;32057;47.830;19.046;2023-02-15T11:20:32;101829.09;;;6.73;84.50
46347;BME280;32057;47.830;19.046;2023-02-15T11:23:01;101825.00;;;6.77;84.54
46347;BME280;32057;47.830;19.046;2023-02-15T11:25:32;101820.00;;;6.80;85.84
46347;BME280;32057;47.830;19.046;2023-02-15T11:28:00;101816.78;;;6.84;85.55
46347;BME280;32057;47.830;19.046;2023-02-15T11:30:44;101821.59;;;6.78;83.49
46347;BME280;32057;47.830;19.046;2023-02-15T11:33:26;101807.53;;;6.88;84.55
46347;BME280;32057;47.830;19.046;2023-02-15T11:38:24;101798.31;;;6.78;83.41
46347;BME280;32057;47.830;19.046;2023-02-15T11:40:54;101806.97;;;6.78;82.66
46347;BME280;32057;47.830;19.046;2023-02-15T11:43:43;101800.03;;;6.77;81.83
46347;BME280;32057;47.830;19.046;2023-02-15T11:46:13;101786.47;;;6.82;84.29
46347;BME280;32057;47.830;19.046;2023-02-15T11:48:40;101792.88;;;6.88;83.93
46347;BME280;32057;47.830;19.046;2023-02-15T11:51:09;101788.97;;;6.95;84.63
46347;BME280;32057;47.830;19.046;2023-02-15T11:53:38;101792.44;;;7.10;84.55
46347;BME280;32057;47.830;19.046;2023-02-15T11:56:04;101787.69;;;7.18;83.34
46347;BME280;32057;47.830;19.046;2023-02-15T11:58:43;101786.09;;;7.20;82.47
46347;BME280;32057;47.830;19.046;2023-02-15T12:01:37;101778.22;;;7.18;83.24
46347;BME280;32057;47.830;19.046;2023-02-15T12:04:24;101781.09;;;7.23;83.59
46347;BME280;32057;47.830;19.046;2023-02-15T12:06:54;101775.91;;;7.08;81.41
46347;BME280;32057;47.830;19.046;2023-02-15T12:11:50;101765.00;;;7.29;81.35
46347;BME280;32057;47.830;19.046;2023-02-15T12:14:16;101761.53;;;7.28;82.04
46347;BME280;32057;47.830;19.046;2023-02-15T12:16:48;101762.16;;;7.24;81.58
46347;BME280;32057;47.830;19.046;2023-02-15T12:19:31;101758.78;;;7.25;81.53
46347;BME280;32057;47.830;19.046;2023-02-15T12:21:58;101758.06;;;7.28;81.59
46347;BME280;32057;47.830;19.046;2023-02-15T12:24:30;101751.81;;;7.24;80.10
46347;BME280;32057;47.830;19.046;2023-02-15T12:29:43;101741.63;;;7.27;81.62
46347;BME280;32057;47.830;19.046;2023-02-15T12:32:17;101742.13;;;7.36;81.57
46347;BME280;32057;47.830;19.046;2023-02-15T12:34:44;101742.31;;;7.40;80.08
46347;BME280;32057;47.830;19.046;2023-02-15T12:37:17;101736.31;;;7.41;80.27
46347;BME280;32057;47.830;19.046;2023-02-15T12:42:17;101742.34;;;7.56;80.00
46347;BME280;32057;47.830;19.046;2023-02-15T12:45:02;101731.13;;;7.55;80.13
46347;BME280;32057;47.830;19.046;2023-02-15T12:47:29;101732.25;;;7.61;79.94
46347;BME280;32057;47.830;19.046;2023-02-15T12:50:08;101733.06;;;7.60;79.81
46347;BME280;32057;47.830;19.046;2023-02-15T12:52:42;101732.97;;;7.58;79.46
46347;BME280;32057;47.830;19.046;2023-02-15T12:55:27;101721.47;;;7.53;80.30
46347;BME280;32057;47.830;19.046;2023-02-15T12:58:28;101722.59;;;7.58;80.06
46347;BME280;32057;47.830;19.046;2023-02-15T13:01:22;101719.03;;;7.56;80.01
46347;BME280;32057;47.830;19.046;2023-02-15T13:04:05;101717.34;;;7.56;78.67
46347;BME280;32057;47.830;19.046;2023-02-15T13:06:33;101705.22;;;7.55;78.49
46347;BME280;32057;47.830;19.046;2023-02-15T13:11:50;101695.63;;;7.54;79.55
46347;BME280;32057;47.830;19.046;2023-02-15T13:14:22;101699.94;;;7.54;78.54
46347;BME280;32057;47.830;19.046;2023-02-15T13:16:53;101693.00;;;7.53;78.64
46347;BME280;32057;47.830;19.046;2023-02-15T13:19:39;101686.75;;;7.49;78.92
46347;BME280;32057;47.830;19.046;2023-02-15T13:22:10;101699.59;;;7.48;79.68
46347;BME280;32057;47.830;19.046;2023-02-15T13:24:50;101685.84;;;7.49;79.63
46347;BME280;32057;47.830;19.046;2023-02-15T13:27:20;101687.63;;;7.50;77.46
46347;BME280;32057;47.830;19.046;2023-02-15T13:29:51;101680.66;;;7.49;79.11
46347;BME280;32057;47.830;19.046;2023-02-15T13:32:36;101677.28;;;7.50;78.82
46347;BME280;32057;47.830;19.046;2023-02-15T13:35:04;101673.88;;;7.51;78.37
46347;BME280;32057;47.830;19.046;2023-02-15T13:38:08;101674.03;;;7.54;78.33
46347;BME280;32057;47.830;19.046;2023-02-15T13:40:58;101669.81;;;7.56;77.86
46347;BME280;32057;47.830;19.046;2023-02-15T13:54:17;101666.25;;;7.54;78.30
46347;BME280;32057;47.830;19.046;2023-02-15T13:59:55;101666.16;;;7.52;78.78
46347;BME280;32057;47.830;19.046;2023-02-15T14:02:37;101660.03;;;7.50;78.22
46347;BME280;32057;47.830;19.046;2023-02-15T14:13:43;101658.34;;;7.51;78.23
46347;BME280;32057;47.830;19.046;2023-02-15T14:21:48;101658.34;;;7.51;77.79
46347;BME280;32057;47.830;19.046;2023-02-15T14:32:45;101665.75;;;7.45;78.42
46347;BME280;32057;47.830;19.046;2023-02-15T14:35:20;101663.81;;;7.41;78.46
46347;BME280;32057;47.830;19.046;2023-02-15T14:40:48;101661.72;;;7.33;79.36
46347;BME280;32057;47.830;19.046;2023-02-15T14:49:12;101656.84;;;7.23;79.86
46347;BME280;32057;47.830;19.046;2023-02-15T14:56:45;101643.47;;;7.15;80.28
46347;BME280;32057;47.830;19.046;2023-02-15T15:01:37;101643.28;;;7.12;80.14
46347;BME280;32057;47.830;19.046;2023-02-15T15:04:10;101634.53;;;7.10;79.68
46347;BME280;32057;47.830;19.046;2023-02-15T15:06:41;101635.41;;;7.11;79.70
46347;BME280;32057;47.830;19.046;2023-02-15T15:09:21;101640.44;;;7.08;80.73
46347;BME280;32057;47.830;19.046;2023-02-15T15:11:52;101638.50;;;7.04;80.97
46347;BME280;32057;47.830;19.046;2023-02-15T15:17:03;101631.19;;;6.96;81.89
46347;BME280;32057;47.830;19.046;2023-02-15T15:22:27;101634.88;;;6.85;83.16
46347;BME280;32057;47.830;19.046;2023-02-15T15:27:41;101631.78;;;6.76;84.81
46347;BME280;32057;47.830;19.046;2023-02-15T15:49:57;101604.00;;;5.84;88.76
46347;BME280;32057;47.830;19.046;2023-02-15T15:52:23;101605.34;;;5.77;88.89
46347;BME280;32057;47.830;19.046;2023-02-15T15:54:56;101607.50;;;5.28;84.59
46347;BME280;32057;47.830;19.046;2023-02-15T15:57:28;101615.69;;;5.08;86.32